sensor_id;sensor_type;location;lat;lon;timestamp;temperature;humidity
19968;DHT22;10145;49.152;9.282;2022-08-02T04:01:03;16.90;99.90
19968;DHT22;10145;49.152;9.282;2022-08-02T04:03:28;16.90;99.90
19968;DHT22;10145;49.152;9.282;2022-08-02T04:05:54;16.80;99.90
19968;DHT22;10145;49.152;9.282;2022-08-02T04:08:20;16.80;99.90
19968;DHT22;10145;49.152;9.282;2022-08-02T04:10:45;16.80;99.90
19968;DHT22;10145;49.152;9.282;2022-08-02T04:13:33;16.90;99.90
19968;DHT22;10145;49.152;9.282;2022-08-02T04:16:05;16.90;99.90
19968;DHT22;10145;49.152;9.282;2022-08-02T04:18:38;17.00;99.90
19968;DHT22;10145;49.152;9.282;2022-08-02T04:21:05;17.10;99.90
19968;DHT22;10145;49.152;9.282;2022-08-02T04:23:33;17.20;99.90
19968;DHT22;10145;49.152;9.282;2022-08-02T04:26:02;17.40;99.90
19968;DHT22;10145;49.152;9.282;2022-08-02T04:28:28;17.40;99.90
19968;DHT22;10145;49.152;9.282;2022-08-02T04:30:55;17.60;99.90
19968;DHT22;10145;49.152;9.282;2022-08-02T04:33:22;17.60;99.90
19968;DHT22;10145;49.152;9.282;2022-08-02T04:35:48;17.70;99.90
19968;DHT22;10145;49.152;9.282;2022-08-02T04:38:14;17.80;99.90
19968;DHT22;10145;49.152;9.282;2022-08-02T04:40:40;17.80;99.90
19968;DHT22;10145;49.152;9.282;2022-08-02T04:43:05;17.80;99.90
19968;DHT22;10145;49.152;9.282;2022-08-02T04:45:31;17.80;99.90
19968;DHT22;10145;49.152;9.282;2022-08-02T04:47:57;17.90;99.90
19968;DHT22;10145;49.152;9.282;2022-08-02T04:50:23;17.90;99.90
19968;DHT22;10145;49.152;9.282;2022-08-02T04:52:48;18.00;99.90
19968;DHT22;10145;49.152;9.282;2022-08-02T04:55:14;18.10;99.90
19968;DHT22;10145;49.152;9.282;2022-08-02T04:57:39;18.20;99.90
19968;DHT22;10145;49.152;9.282;2022-08-02T05:00:21;18.30;99.90
19968;DHT22;10145;49.152;9.282;2022-08-02T05:02:47;18.40;99.90
19968;DHT22;10145;49.152;9.282;2022-08-02T05:05:13;18.50;99.90
19968;DHT22;10145;49.152;9.282;2022-08-02T05:07:38;18.60;99.90
19968;DHT22;10145;49.152;9.282;2022-08-02T05:10:04;18.60;99.90
19968;DHT22;10145;49.152;9.282;2022-08-02T05:12:30;18.70;99.90
19968;DHT22;10145;49.152;9.282;2022-08-02T05:14:56;18.80;99.90
19968;DHT22;10145;49.152;9.282;2022-08-02T05:17:21;18.80;99.90
19968;DHT22;10145;49.152;9.282;2022-08-02T05:19:47;18.90;99.90
19968;DHT22;10145;49.152;9.282;2022-08-02T05:22:12;18.90;99.90
19968;DHT22;10145;49.152;9.282;2022-08-02T05:24:38;19.00;99.90
19968;DHT22;10145;49.152;9.282;2022-08-02T05:27:03;19.10;99.90
19968;DHT22;10145;49.152;9.282;2022-08-02T05:29:29;19.10;99.90
19968;DHT22;10145;49.152;9.282;2022-08-02T05:31:54;19.10;99.90
19968;DHT22;10145;49.152;9.282;2022-08-02T05:34:20;19.10;99.90
19968;DHT22;10145;49.152;9.282;2022-08-02T05:36:45;19.10;99.90
19968;DHT22;10145;49.152;9.282;2022-08-02T05:39:11;19.00;99.90
19968;DHT22;10145;49.152;9.282;2022-08-02T05:41:36;19.10;99.90
19968;DHT22;10145;49.152;9.282;2022-08-02T05:44:03;19.10;99.90
19968;DHT22;10145;49.152;9.282;2022-08-02T05:46:28;19.10;99.90
19968;DHT22;10145;49.152;9.282;2022-08-02T05:48:54;19.10;99.90
19968;DHT22;10145;49.152;9.282;2022-08-02T05:51:28;19.10;99.90
19968;DHT22;10145;49.152;9.282;2022-08-02T05:54:19;19.10;99.90
19968;DHT22;10145;49.152;9.282;2022-08-02T05:56:54;19.20;99.90
19968;DHT22;10145;49.152;9.282;2022-08-02T06:05:09;19.50;99.90
19968;DHT22;10145;49.152;9.282;2022-08-02T06:07:36;19.60;99.90
19968;DHT22;10145;49.152;9.282;2022-08-02T06:10:05;19.70;99.90
19968;DHT22;10145;49.152;9.282;2022-08-02T06:12:34;19.80;99.90
19968;DHT22;10145;49.152;9.282;2022-08-02T06:15:03;19.80;99.90
19968;DHT22;10145;49.152;9.282;2022-08-02T06:17:29;19.90;99.90
19968;DHT22;10145;49.152;9.282;2022-08-02T06:19:56;19.90;99.90
19968;DHT22;10145;49.152;9.282;2022-08-02T06:22:26;19.90;99.90
19968;DHT22;10145;49.152;9.282;2022-08-02T06:24:53;19.80;99.90
19968;DHT22;10145;49.152;9.282;2022-08-02T06:27:20;19.90;99.90
19968;DHT22;10145;49.152;9.282;2022-08-02T06:29:48;19.80;99.90
19968;DHT22;10145;49.152;9.282;2022-08-02T06:32:17;19.80;99.90
19968;DHT22;10145;49.152;9.282;2022-08-02T06:34:44;19.90;99.90
19968;DHT22;10145;49.152;9.282;2022-08-02T06:37:36;19.90;99.90
19968;DHT22;10145;49.152;9.282;2022-08-02T06:45:28;20.20;99.90
19968;DHT22;10145;49.152;9.282;2022-08-02T06:47:54;20.20;99.90
19968;DHT22;10145;49.152;9.282;2022-08-02T06:50:19;20.30;99.90
19968;DHT22;10145;49.152;9.282;2022-08-02T06:52:45;20.30;99.90
19968;DHT22;10145;49.152;9.282;2022-08-02T06:55:11;20.40;99.90
19968;DHT22;10145;49.152;9.282;2022-08-02T06:57:36;20.50;99.90
19968;DHT22;10145;49.152;9.282;2022-08-02T07:00:04;20.60;99.90
19968;DHT22;10145;49.152;9.282;2022-08-02T07:02:34;20.60;99.90
19968;DHT22;10145;49.152;9.282;2022-08-02T07:05:00;20.80;99.90
19968;DHT22;10145;49.152;9.282;2022-08-02T07:07:25;20.90;99.90
19968;DHT22;10145;49.152;9.282;2022-08-02T07:09:52;21.10;99.90
19968;DHT22;10145;49.152;9.282;2022-08-02T07:12:18;21.30;99.90
19968;DHT22;10145;49.152;9.282;2022-08-02T07:14:43;21.50;99.90
19968;DHT22;10145;49.152;9.282;2022-08-02T07:17:09;21.70;99.90
19968;DHT22;10145;49.152;9.282;2022-08-02T07:19:34;21.70;99.90
19968;DHT22;10145;49.152;9.282;2022-08-02T07:22:00;22.00;99.90
19968;DHT22;10145;49.152;9.282;2022-08-02T07:24:25;22.20;99.90
19968;DHT22;10145;49.152;9.282;2022-08-02T07:26:51;22.50;99.90
19968;DHT22;10145;49.152;9.282;2022-08-02T07:29:16;22.60;99.90
19968;DHT22;10145;49.152;9.282;2022-08-02T07:31:42;22.70;99.90
19968;DHT22;10145;49.152;9.282;2022-08-02T07:34:07;22.90;99.90
19968;DHT22;10145;49.152;9.282;2022-08-02T07:36:33;22.80;99.90
19968;DHT22;10145;49.152;9.282;2022-08-02T07:38:58;23.00;99.90
19968;DHT22;10145;49.152;9.282;2022-08-02T07:41:24;23.20;99.90
19968;DHT22;10145;49.152;9.282;2022-08-02T07:43:50;23.20;99.90
19968;DHT22;10145;49.152;9.282;2022-08-02T07:46:15;23.40;99.70
19968;DHT22;10145;49.152;9.282;2022-08-02T07:48:41;23.50;99.70
19968;DHT22;10145;49.152;9.282;2022-08-02T07:51:06;23.60;98.70
19968;DHT22;10145;49.152;9.282;2022-08-02T07:53:32;23.80;98.50
19968;DHT22;10145;49.152;9.282;2022-08-02T07:55:57;23.90;98.20
19968;DHT22;10145;49.152;9.282;2022-08-02T07:58:23;24.10;97.30
19968;DHT22;10145;49.152;9.282;2022-08-02T08:00:49;24.20;97.10
19968;DHT22;10145;49.152;9.282;2022-08-02T08:03:14;24.30;96.70
19968;DHT22;10145;49.152;9.282;2022-08-02T08:05:40;24.50;96.70
19968;DHT22;10145;49.152;9.282;2022-08-02T08:08:05;24.40;96.90
19968;DHT22;10145;49.152;9.282;2022-08-02T08:10:31;24.50;96.60
19968;DHT22;10145;49.152;9.282;2022-08-02T08:12:57;24.70;96.10
19968;DHT22;10145;49.152;9.282;2022-08-02T08:15:22;25.00;95.40
19968;DHT22;10145;49.152;9.282;2022-08-02T08:17:48;25.10;95.30
19968;DHT22;10145;49.152;9.282;2022-08-02T08:20:14;25.20;95.20
19968;DHT22;10145;49.152;9.282;2022-08-02T08:22:39;25.30;95.30
19968;DHT22;10145;49.152;9.282;2022-08-02T08:25:05;25.60;94.50
19968;DHT22;10145;49.152;9.282;2022-08-02T08:27:31;25.80;94.00
19968;DHT22;10145;49.152;9.282;2022-08-02T08:29:56;25.90;93.20
19968;DHT22;10145;49.152;9.282;2022-08-02T08:32:22;26.00;92.90
19968;DHT22;10145;49.152;9.282;2022-08-02T08:34:48;26.20;92.60
19968;DHT22;10145;49.152;9.282;2022-08-02T08:37:14;26.30;92.20
19968;DHT22;10145;49.152;9.282;2022-08-02T08:39:40;26.40;91.60
19968;DHT22;10145;49.152;9.282;2022-08-02T08:42:07;26.70;91.00
19968;DHT22;10145;49.152;9.282;2022-08-02T08:44:36;26.90;91.30
19968;DHT22;10145;49.152;9.282;2022-08-02T08:47:03;26.80;90.50
19968;DHT22;10145;49.152;9.282;2022-08-02T08:49:32;26.80;90.60
19968;DHT22;10145;49.152;9.282;2022-08-02T08:52:04;27.10;90.00
19968;DHT22;10145;49.152;9.282;2022-08-02T08:54:31;27.30;89.90
19968;DHT22;10145;49.152;9.282;2022-08-02T08:56:57;27.60;88.00
19968;DHT22;10145;49.152;9.282;2022-08-02T08:59:23;27.30;88.20
19968;DHT22;10145;49.152;9.282;2022-08-02T09:01:49;27.20;86.60
19968;DHT22;10145;49.152;9.282;2022-08-02T09:04:16;27.30;85.70
19968;DHT22;10145;49.152;9.282;2022-08-02T09:06:42;27.30;86.10
19968;DHT22;10145;49.152;9.282;2022-08-02T09:09:08;27.50;85.90
19968;DHT22;10145;49.152;9.282;2022-08-02T09:11:33;27.40;84.40
19968;DHT22;10145;49.152;9.282;2022-08-02T09:14:00;27.60;84.70
19968;DHT22;10145;49.152;9.282;2022-08-02T09:16:34;27.80;84.00
19968;DHT22;10145;49.152;9.282;2022-08-02T09:19:15;28.00;84.10
19968;DHT22;10145;49.152;9.282;2022-08-02T09:21:41;28.10;82.20
19968;DHT22;10145;49.152;9.282;2022-08-02T09:24:21;28.20;82.10
19968;DHT22;10145;49.152;9.282;2022-08-02T09:26:48;28.10;82.00
19968;DHT22;10145;49.152;9.282;2022-08-02T09:29:15;28.30;82.40
19968;DHT22;10145;49.152;9.282;2022-08-02T09:31:41;28.30;81.00
19968;DHT22;10145;49.152;9.282;2022-08-02T09:34:07;28.30;80.40
19968;DHT22;10145;49.152;9.282;2022-08-02T09:36:39;28.40;79.90
19968;DHT22;10145;49.152;9.282;2022-08-02T09:39:06;28.00;79.60
19968;DHT22;10145;49.152;9.282;2022-08-02T09:41:37;28.40;79.90
19968;DHT22;10145;49.152;9.282;2022-08-02T09:44:06;28.60;80.20
19968;DHT22;10145;49.152;9.282;2022-08-02T09:46:40;28.70;79.20
19968;DHT22;10145;49.152;9.282;2022-08-02T09:49:09;28.60;78.00
19968;DHT22;10145;49.152;9.282;2022-08-02T09:54:25;28.80;78.90
19968;DHT22;10145;49.152;9.282;2022-08-02T09:56:56;28.90;78.50
19968;DHT22;10145;49.152;9.282;2022-08-02T09:59:23;29.00;78.00
19968;DHT22;10145;49.152;9.282;2022-08-02T10:01:49;29.20;75.60
19968;DHT22;10145;49.152;9.282;2022-08-02T10:04:15;29.20;77.00
19968;DHT22;10145;49.152;9.282;2022-08-02T10:06:43;29.30;75.80
19968;DHT22;10145;49.152;9.282;2022-08-02T10:09:11;29.40;76.10
19968;DHT22;10145;49.152;9.282;2022-08-02T10:11:37;29.40;75.20
19968;DHT22;10145;49.152;9.282;2022-08-02T10:14:05;29.40;74.20
19968;DHT22;10145;49.152;9.282;2022-08-02T10:16:33;29.50;73.60
19968;DHT22;10145;49.152;9.282;2022-08-02T10:18:59;29.70;74.20
19968;DHT22;10145;49.152;9.282;2022-08-02T10:21:31;30.20;74.20
19968;DHT22;10145;49.152;9.282;2022-08-02T10:24:06;30.40;73.50
19968;DHT22;10145;49.152;9.282;2022-08-02T10:26:33;30.70;72.30
19968;DHT22;10145;49.152;9.282;2022-08-02T10:28:59;31.10;69.50
19968;DHT22;10145;49.152;9.282;2022-08-02T10:31:32;31.10;69.30
19968;DHT22;10145;49.152;9.282;2022-08-02T10:34:00;30.90;70.30
19968;DHT22;10145;49.152;9.282;2022-08-02T10:36:30;31.10;68.70
19968;DHT22;10145;49.152;9.282;2022-08-02T10:38:57;31.10;69.70
19968;DHT22;10145;49.152;9.282;2022-08-02T10:41:46;31.20;69.80
19968;DHT22;10145;49.152;9.282;2022-08-02T10:44:26;31.00;69.60
19968;DHT22;10145;49.152;9.282;2022-08-02T10:49:56;31.50;68.20
19968;DHT22;10145;49.152;9.282;2022-08-02T10:52:25;31.90;67.00
19968;DHT22;10145;49.152;9.282;2022-08-02T10:55:08;32.20;64.10
19968;DHT22;10145;49.152;9.282;2022-08-02T10:57:34;32.60;64.70
19968;DHT22;10145;49.152;9.282;2022-08-02T11:02:33;32.60;63.00
19968;DHT22;10145;49.152;9.282;2022-08-02T11:04:59;32.40;62.60
19968;DHT22;10145;49.152;9.282;2022-08-02T11:07:40;32.40;62.40
19968;DHT22;10145;49.152;9.282;2022-08-02T11:13:13;31.20;66.00
19968;DHT22;10145;49.152;9.282;2022-08-02T11:16:01;31.10;66.10
19968;DHT22;10145;49.152;9.282;2022-08-02T11:21:28;31.80;64.00
19968;DHT22;10145;49.152;9.282;2022-08-02T11:23:54;32.20;64.30
19968;DHT22;10145;49.152;9.282;2022-08-02T11:29:02;32.80;62.50
19968;DHT22;10145;49.152;9.282;2022-08-02T11:31:29;32.90;61.80
19968;DHT22;10145;49.152;9.282;2022-08-02T11:34:03;32.90;62.00
19968;DHT22;10145;49.152;9.282;2022-08-02T11:36:29;33.20;59.80
19968;DHT22;10145;49.152;9.282;2022-08-02T11:39:11;33.30;60.20
19968;DHT22;10145;49.152;9.282;2022-08-02T11:41:37;33.00;59.90
19968;DHT22;10145;49.152;9.282;2022-08-02T11:44:03;32.80;60.50
19968;DHT22;10145;49.152;9.282;2022-08-02T11:46:29;32.20;59.70
19968;DHT22;10145;49.152;9.282;2022-08-02T11:48:54;31.10;61.70
19968;DHT22;10145;49.152;9.282;2022-08-02T11:51:20;30.30;63.50
19968;DHT22;10145;49.152;9.282;2022-08-02T11:53:54;29.90;65.40
19968;DHT22;10145;49.152;9.282;2022-08-02T11:56:27;29.60;69.00
19968;DHT22;10145;49.152;9.282;2022-08-02T11:59:09;29.30;67.70
19968;DHT22;10145;49.152;9.282;2022-08-02T12:01:37;29.40;68.80
19968;DHT22;10145;49.152;9.282;2022-08-02T12:04:05;29.50;70.10
19968;DHT22;10145;49.152;9.282;2022-08-02T12:06:32;29.90;67.20
19968;DHT22;10145;49.152;9.282;2022-08-02T12:09:09;31.00;64.30
19968;DHT22;10145;49.152;9.282;2022-08-02T12:11:35;31.10;63.90
19968;DHT22;10145;49.152;9.282;2022-08-02T12:14:04;30.90;64.50
19968;DHT22;10145;49.152;9.282;2022-08-02T12:16:38;31.10;62.40
19968;DHT22;10145;49.152;9.282;2022-08-02T12:19:24;31.20;62.50
19968;DHT22;10145;49.152;9.282;2022-08-02T12:24:36;31.50;59.80
19968;DHT22;10145;49.152;9.282;2022-08-02T12:27:02;32.10;59.30
19968;DHT22;10145;49.152;9.282;2022-08-02T12:29:33;31.90;59.00
19968;DHT22;10145;49.152;9.282;2022-08-02T12:31:59;31.50;60.30
19968;DHT22;10145;49.152;9.282;2022-08-02T12:34:27;30.80;60.80
19968;DHT22;10145;49.152;9.282;2022-08-02T12:37:02;30.30;62.50
19968;DHT22;10145;49.152;9.282;2022-08-02T12:39:41;30.00;63.10
19968;DHT22;10145;49.152;9.282;2022-08-02T12:42:09;30.30;65.90
19968;DHT22;10145;49.152;9.282;2022-08-02T12:44:38;31.20;61.50
19968;DHT22;10145;49.152;9.282;2022-08-02T12:47:13;32.20;58.90
19968;DHT22;10145;49.152;9.282;2022-08-02T12:49:39;32.90;55.70
19968;DHT22;10145;49.152;9.282;2022-08-02T12:52:21;32.90;57.00
19968;DHT22;10145;49.152;9.282;2022-08-02T12:54:47;33.20;55.80
19968;DHT22;10145;49.152;9.282;2022-08-02T12:57:18;33.80;56.20
19968;DHT22;10145;49.152;9.282;2022-08-02T12:59:50;34.10;53.70
19968;DHT22;10145;49.152;9.282;2022-08-02T13:02:16;34.00;54.40
19968;DHT22;10145;49.152;9.282;2022-08-02T13:04:42;34.00;54.90
19968;DHT22;10145;49.152;9.282;2022-08-02T13:07:08;34.40;54.40
19968;DHT22;10145;49.152;9.282;2022-08-02T13:09:36;34.10;54.40
19968;DHT22;10145;49.152;9.282;2022-08-02T13:12:03;34.40;52.90
19968;DHT22;10145;49.152;9.282;2022-08-02T13:14:29;34.90;52.70
19968;DHT22;10145;49.152;9.282;2022-08-02T13:16:54;35.30;50.60
19968;DHT22;10145;49.152;9.282;2022-08-02T13:19:20;34.90;53.20
19968;DHT22;10145;49.152;9.282;2022-08-02T13:21:46;35.10;51.50
19968;DHT22;10145;49.152;9.282;2022-08-02T13:24:13;35.40;50.60
19968;DHT22;10145;49.152;9.282;2022-08-02T13:26:41;34.70;49.20
19968;DHT22;10145;49.152;9.282;2022-08-02T13:29:07;34.50;49.80
19968;DHT22;10145;49.152;9.282;2022-08-02T13:31:32;34.50;50.70
19968;DHT22;10145;49.152;9.282;2022-08-02T13:34:05;34.90;49.40
19968;DHT22;10145;49.152;9.282;2022-08-02T13:36:33;34.90;49.30
19968;DHT22;10145;49.152;9.282;2022-08-02T13:38:59;35.10;49.80
19968;DHT22;10145;49.152;9.282;2022-08-02T13:41:25;35.30;49.40
19968;DHT22;10145;49.152;9.282;2022-08-02T13:43:50;36.00;48.70
19968;DHT22;10145;49.152;9.282;2022-08-02T13:46:16;36.60;48.70
19968;DHT22;10145;49.152;9.282;2022-08-02T13:48:41;36.80;46.80
19968;DHT22;10145;49.152;9.282;2022-08-02T13:51:07;37.20;46.90
19968;DHT22;10145;49.152;9.282;2022-08-02T13:53:39;37.60;46.00
19968;DHT22;10145;49.152;9.282;2022-08-02T13:56:05;37.40;45.20
19968;DHT22;10145;49.152;9.282;2022-08-02T13:58:31;38.00;45.60
19968;DHT22;10145;49.152;9.282;2022-08-02T14:00:57;38.20;44.60
19968;DHT22;10145;49.152;9.282;2022-08-02T14:03:22;37.70;44.70
19968;DHT22;10145;49.152;9.282;2022-08-02T14:05:48;37.50;45.60
19968;DHT22;10145;49.152;9.282;2022-08-02T14:08:15;37.20;43.60
19968;DHT22;10145;49.152;9.282;2022-08-02T14:10:41;36.90;46.60
19968;DHT22;10145;49.152;9.282;2022-08-02T14:13:06;36.30;46.70
19968;DHT22;10145;49.152;9.282;2022-08-02T14:15:33;36.00;48.60
19968;DHT22;10145;49.152;9.282;2022-08-02T14:17:58;36.40;47.40
19968;DHT22;10145;49.152;9.282;2022-08-02T14:20:24;38.20;45.00
19968;DHT22;10145;49.152;9.282;2022-08-02T14:22:49;39.20;44.00
19968;DHT22;10145;49.152;9.282;2022-08-02T14:25:15;40.30;43.30
19968;DHT22;10145;49.152;9.282;2022-08-02T14:27:41;40.90;41.60
19968;DHT22;10145;49.152;9.282;2022-08-02T14:30:07;41.10;40.40
19968;DHT22;10145;49.152;9.282;2022-08-02T14:32:32;41.80;39.50
19968;DHT22;10145;49.152;9.282;2022-08-02T14:34:58;41.20;39.50
19968;DHT22;10145;49.152;9.282;2022-08-02T14:37:23;41.50;39.60
19968;DHT22;10145;49.152;9.282;2022-08-02T14:39:49;42.70;38.50
19968;DHT22;10145;49.152;9.282;2022-08-02T14:42:15;42.40;38.40
19968;DHT22;10145;49.152;9.282;2022-08-02T14:44:40;42.80;37.80
19968;DHT22;10145;49.152;9.282;2022-08-02T14:47:06;42.90;38.30
19968;DHT22;10145;49.152;9.282;2022-08-02T14:49:31;43.30;37.30
19968;DHT22;10145;49.152;9.282;2022-08-02T14:51:57;43.50;36.70
19968;DHT22;10145;49.152;9.282;2022-08-02T14:54:24;42.80;36.20
19968;DHT22;10145;49.152;9.282;2022-08-02T14:56:52;41.40;37.40
19968;DHT22;10145;49.152;9.282;2022-08-02T14:59:18;41.30;38.70
19968;DHT22;10145;49.152;9.282;2022-08-02T15:01:44;41.60;38.40
19968;DHT22;10145;49.152;9.282;2022-08-02T15:04:09;43.00;36.40
19968;DHT22;10145;49.152;9.282;2022-08-02T15:06:35;44.00;36.00
19968;DHT22;10145;49.152;9.282;2022-08-02T15:09:00;44.70;34.80
19968;DHT22;10145;49.152;9.282;2022-08-02T15:11:26;44.90;34.40
19968;DHT22;10145;49.152;9.282;2022-08-02T15:13:51;45.50;34.00
19968;DHT22;10145;49.152;9.282;2022-08-02T15:16:17;45.40;32.90
19968;DHT22;10145;49.152;9.282;2022-08-02T15:18:43;43.80;34.30
19968;DHT22;10145;49.152;9.282;2022-08-02T15:21:09;44.20;33.90
19968;DHT22;10145;49.152;9.282;2022-08-02T15:23:36;44.60;34.00
19968;DHT22;10145;49.152;9.282;2022-08-02T15:26:02;44.20;33.30
19968;DHT22;10145;49.152;9.282;2022-08-02T15:28:28;43.70;34.30
19968;DHT22;10145;49.152;9.282;2022-08-02T15:30:56;42.50;34.40
19968;DHT22;10145;49.152;9.282;2022-08-02T15:33:22;43.60;34.10
19968;DHT22;10145;49.152;9.282;2022-08-02T15:35:47;44.50;32.90
19968;DHT22;10145;49.152;9.282;2022-08-02T15:38:13;43.80;33.00
19968;DHT22;10145;49.152;9.282;2022-08-02T15:40:38;44.30;33.10
19968;DHT22;10145;49.152;9.282;2022-08-02T15:43:04;43.90;33.50
19968;DHT22;10145;49.152;9.282;2022-08-02T15:45:30;44.40;33.40
19968;DHT22;10145;49.152;9.282;2022-08-02T15:47:55;45.30;32.10
19968;DHT22;10145;49.152;9.282;2022-08-02T15:50:21;45.50;31.90
19968;DHT22;10145;49.152;9.282;2022-08-02T15:52:46;45.10;32.70
19968;DHT22;10145;49.152;9.282;2022-08-02T15:55:12;45.10;33.10
19968;DHT22;10145;49.152;9.282;2022-08-02T15:57:38;44.70;32.10
19968;DHT22;10145;49.152;9.282;2022-08-02T16:00:05;45.30;32.90
19968;DHT22;10145;49.152;9.282;2022-08-02T16:02:31;44.90;32.60
19968;DHT22;10145;49.152;9.282;2022-08-02T16:04:56;44.60;32.60
19968;DHT22;10145;49.152;9.282;2022-08-02T16:07:22;44.70;32.30
19968;DHT22;10145;49.152;9.282;2022-08-02T16:09:47;45.10;32.60
19968;DHT22;10145;49.152;9.282;2022-08-02T16:12:13;44.90;32.40
19968;DHT22;10145;49.152;9.282;2022-08-02T16:14:38;45.30;31.10
19968;DHT22;10145;49.152;9.282;2022-08-02T16:17:04;44.10;32.00
19968;DHT22;10145;49.152;9.282;2022-08-02T16:19:30;44.30;32.70
19968;DHT22;10145;49.152;9.282;2022-08-02T16:21:55;44.80;32.00
19968;DHT22;10145;49.152;9.282;2022-08-02T16:24:21;44.00;32.50
19968;DHT22;10145;49.152;9.282;2022-08-02T16:26:47;43.40;33.90
19968;DHT22;10145;49.152;9.282;2022-08-02T16:29:13;43.20;33.60
19968;DHT22;10145;49.152;9.282;2022-08-02T16:31:40;42.80;33.50
19968;DHT22;10145;49.152;9.282;2022-08-02T16:34:06;42.70;35.20
19968;DHT22;10145;49.152;9.282;2022-08-02T16:36:32;41.80;34.90
19968;DHT22;10145;49.152;9.282;2022-08-02T16:38:57;40.60;36.00
19968;DHT22;10145;49.152;9.282;2022-08-02T16:41:23;40.50;36.10
19968;DHT22;10145;49.152;9.282;2022-08-02T16:43:49;39.30;38.00
19968;DHT22;10145;49.152;9.282;2022-08-02T16:46:14;38.00;40.70
19968;DHT22;10145;49.152;9.282;2022-08-02T16:48:41;36.20;40.40
19968;DHT22;10145;49.152;9.282;2022-08-02T16:51:06;35.20;42.40
19968;DHT22;10145;49.152;9.282;2022-08-02T16:53:32;34.70;43.10
19968;DHT22;10145;49.152;9.282;2022-08-02T16:55:57;34.20;44.80
19968;DHT22;10145;49.152;9.282;2022-08-02T16:58:23;33.90;44.10
19968;DHT22;10145;49.152;9.282;2022-08-02T17:00:49;33.80;45.20
19968;DHT22;10145;49.152;9.282;2022-08-02T17:03:14;33.60;47.60
19968;DHT22;10145;49.152;9.282;2022-08-02T17:05:40;33.10;47.80
19968;DHT22;10145;49.152;9.282;2022-08-02T17:08:06;32.80;46.90
19968;DHT22;10145;49.152;9.282;2022-08-02T17:10:32;32.40;46.30
19968;DHT22;10145;49.152;9.282;2022-08-02T17:13:01;32.10;49.70
19968;DHT22;10145;49.152;9.282;2022-08-02T17:15:27;31.90;49.50
19968;DHT22;10145;49.152;9.282;2022-08-02T17:17:53;31.90;47.40
19968;DHT22;10145;49.152;9.282;2022-08-02T17:20:19;31.90;48.00
19968;DHT22;10145;49.152;9.282;2022-08-02T17:22:45;31.80;48.20
19968;DHT22;10145;49.152;9.282;2022-08-02T17:25:10;31.60;47.70
19968;DHT22;10145;49.152;9.282;2022-08-02T17:27:38;31.40;49.90
19968;DHT22;10145;49.152;9.282;2022-08-02T17:30:04;31.20;50.80
19968;DHT22;10145;49.152;9.282;2022-08-02T17:32:29;31.10;49.60
19968;DHT22;10145;49.152;9.282;2022-08-02T17:34:55;30.80;52.00
19968;DHT22;10145;49.152;9.282;2022-08-02T17:37:21;30.60;51.40
19968;DHT22;10145;49.152;9.282;2022-08-02T17:39:46;30.40;51.10
19968;DHT22;10145;49.152;9.282;2022-08-02T17:42:12;30.20;51.60
19968;DHT22;10145;49.152;9.282;2022-08-02T17:44:37;30.20;52.50
19968;DHT22;10145;49.152;9.282;2022-08-02T17:47:04;30.00;53.40
19968;DHT22;10145;49.152;9.282;2022-08-02T17:49:30;30.00;53.20
19968;DHT22;10145;49.152;9.282;2022-08-02T17:51:56;29.90;54.10
19968;DHT22;10145;49.152;9.282;2022-08-02T17:54:21;29.70;54.40
19968;DHT22;10145;49.152;9.282;2022-08-02T17:56:47;29.70;54.80
19968;DHT22;10145;49.152;9.282;2022-08-02T17:59:14;29.60;53.90
19968;DHT22;10145;49.152;9.282;2022-08-02T18:01:44;29.50;55.30
19968;DHT22;10145;49.152;9.282;2022-08-02T18:04:11;29.30;56.70
19968;DHT22;10145;49.152;9.282;2022-08-02T18:06:37;29.10;57.40
19968;DHT22;10145;49.152;9.282;2022-08-02T18:09:04;28.70;57.40
19968;DHT22;10145;49.152;9.282;2022-08-02T18:11:30;28.70;58.30
19968;DHT22;10145;49.152;9.282;2022-08-02T18:13:56;28.60;59.10
19968;DHT22;10145;49.152;9.282;2022-08-02T18:16:22;28.40;60.30
19968;DHT22;10145;49.152;9.282;2022-08-02T18:18:48;28.20;60.80
19968;DHT22;10145;49.152;9.282;2022-08-02T18:21:14;28.00;61.70
19968;DHT22;10145;49.152;9.282;2022-08-02T18:23:39;27.70;61.90
19968;DHT22;10145;49.152;9.282;2022-08-02T18:26:05;27.50;62.20
19968;DHT22;10145;49.152;9.282;2022-08-02T18:28:31;27.20;62.90
19968;DHT22;10145;49.152;9.282;2022-08-02T18:30:56;27.10;63.70
19968;DHT22;10145;49.152;9.282;2022-08-02T18:33:22;26.90;63.80
19968;DHT22;10145;49.152;9.282;2022-08-02T18:35:48;26.60;64.20
19968;DHT22;10145;49.152;9.282;2022-08-02T18:38:14;26.40;64.80
19968;DHT22;10145;49.152;9.282;2022-08-02T18:40:40;26.20;64.60
19968;DHT22;10145;49.152;9.282;2022-08-02T18:43:06;26.00;64.60
19968;DHT22;10145;49.152;9.282;2022-08-02T18:45:32;25.70;65.20
19968;DHT22;10145;49.152;9.282;2022-08-02T18:47:57;25.60;65.60
19968;DHT22;10145;49.152;9.282;2022-08-02T18:50:23;25.40;66.20
19968;DHT22;10145;49.152;9.282;2022-08-02T18:52:49;25.20;66.70
19968;DHT22;10145;49.152;9.282;2022-08-02T18:55:16;25.00;67.80
19968;DHT22;10145;49.152;9.282;2022-08-02T18:57:41;24.80;69.20
19968;DHT22;10145;49.152;9.282;2022-08-02T19:00:08;24.60;71.00
19968;DHT22;10145;49.152;9.282;2022-08-02T19:02:34;24.50;71.20
19968;DHT22;10145;49.152;9.282;2022-08-02T19:05:00;24.20;72.00
19968;DHT22;10145;49.152;9.282;2022-08-02T19:07:25;24.20;72.40
19968;DHT22;10145;49.152;9.282;2022-08-02T19:09:51;24.00;73.10
19968;DHT22;10145;49.152;9.282;2022-08-02T19:12:16;23.90;73.70
19968;DHT22;10145;49.152;9.282;2022-08-02T19:14:42;23.70;74.10
19968;DHT22;10145;49.152;9.282;2022-08-02T19:17:08;23.70;74.70
19968;DHT22;10145;49.152;9.282;2022-08-02T19:19:34;23.50;74.70
19968;DHT22;10145;49.152;9.282;2022-08-02T19:21:59;23.40;75.90
19968;DHT22;10145;49.152;9.282;2022-08-02T19:24:25;23.30;75.80
19968;DHT22;10145;49.152;9.282;2022-08-02T19:26:50;23.10;75.70
19968;DHT22;10145;49.152;9.282;2022-08-02T19:29:17;23.10;76.10
19968;DHT22;10145;49.152;9.282;2022-08-02T19:31:46;22.90;76.10
19968;DHT22;10145;49.152;9.282;2022-08-02T19:34:12;22.80;76.10
19968;DHT22;10145;49.152;9.282;2022-08-02T19:36:38;22.70;76.30
19968;DHT22;10145;49.152;9.282;2022-08-02T19:39:03;22.50;76.70
19968;DHT22;10145;49.152;9.282;2022-08-02T19:41:29;22.50;76.90
19968;DHT22;10145;49.152;9.282;2022-08-02T19:43:55;22.50;77.40
19968;DHT22;10145;49.152;9.282;2022-08-02T19:46:21;22.40;78.10
19968;DHT22;10145;49.152;9.282;2022-08-02T19:48:49;22.30;78.10
19968;DHT22;10145;49.152;9.282;2022-08-02T19:51:15;22.20;78.40
19968;DHT22;10145;49.152;9.282;2022-08-02T19:53:40;22.20;79.30
19968;DHT22;10145;49.152;9.282;2022-08-02T19:56:07;22.10;78.90
19968;DHT22;10145;49.152;9.282;2022-08-02T19:58:35;22.00;79.10
19968;DHT22;10145;49.152;9.282;2022-08-02T20:01:02;21.90;79.70